Time;durP1;ratioP1;P1;durP2;ratioP2;P2;SDS_P1;SDS_P2;PMS_P1;PMS_P2;Temp;Humidity;BMP_temperature;BMP_pressure;BME280_temperature;BME280_humidity;BME280_pressure;Samples;Min_cycle;Max_cycle;Signal;HPM_P1;HPM_P2
2021/12/31 00:02:05;;;;;;;7.22;6.72;;;12.70;99.90;;;;;;4975520;28;20034;-74
2021/12/31 00:04:31;;;;;;;6.50;6.00;;;12.70;99.90;;;;;;4992439;28;20488;-73
2021/12/31 00:06:58;;;;;;;6.05;5.63;;;;;;;;;;4973966;28;20089;-74
2021/12/31 00:09:24;;;;;;;7.75;7.15;;;;;;;;;;4978715;28;20106;-74
2021/12/31 00:11:51;;;;;;;7.55;6.97;;;;;;;;;;4983710;28;20058;-74
2021/12/31 00:14:19;;;;;;;7.93;7.32;;;12.60;99.90;;;;;;4987262;28;20018;-72
2021/12/31 00:16:45;;;;;;;7.35;6.75;;;;;;;;;;4970241;28;20023;-74
2021/12/31 00:19:13;;;;;;;7.78;7.18;;;;;;;;;;4981663;28;20500;-74
2021/12/31 00:21:41;;;;;;;8.60;7.63;;;;;;;;;;4978755;28;20027;-74
2021/12/31 00:24:06;;;;;;;9.20;8.48;;;12.60;99.90;;;;;;4994677;28;20034;-74
2021/12/31 00:26:32;;;;;;;9.52;8.82;;;12.50;99.90;;;;;;4983668;28;20023;-72
2021/12/31 00:28:58;;;;;;;10.02;8.75;;;12.80;99.90;;;;;;4988619;28;20030;-73
2021/12/31 00:31:24;;;;;;;11.07;8.98;;;;;;;;;;4987612;28;20480;-74
2021/12/31 00:33:50;;;;;;;9.75;9.05;;;;;;;;;;4977526;28;20323;-73
2021/12/31 00:36:16;;;;;;;9.98;8.98;;;12.40;99.90;;;;;;4973779;28;20062;-74
2021/12/31 00:38:42;;;;;;;11.48;10.35;;;;;;;;;;4977317;28;20103;-74
2021/12/31 00:41:07;;;;;;;10.23;9.30;;;;;;;;;;4978398;28;20098;-74
2021/12/31 00:43:33;;;;;;;9.52;8.82;;;12.50;99.90;;;;;;4978710;28;20043;-74
2021/12/31 00:46:02;;;;;;;8.60;8.00;;;;;;;;;;4980136;28;20026;-74
2021/12/31 00:48:27;;;;;;;10.05;9.15;;;12.30;99.90;;;;;;4977400;28;20026;-73
2021/12/31 00:50:53;;;;;;;9.57;8.77;;;12.40;99.90;;;;;;4974305;28;20026;-73
2021/12/31 00:53:19;;;;;;;9.73;8.75;;;;;;;;;;4981957;28;20058;-74
2021/12/31 00:55:45;;;;;;;11.05;10.05;;;;;;;;;;4979450;28;20026;-74
2021/12/31 00:58:10;;;;;;;11.82;8.57;;;12.60;99.90;;;;;;4984352;28;20030;-74
2021/12/31 01:00:36;;;;;;;10.38;9.48;;;12.70;99.90;;;;;;4985861;28;20489;-74
2021/12/31 01:03:02;;;;;;;9.90;9.20;;;12.70;99.90;;;;;;4987733;28;20077;-76
2021/12/31 01:05:28;;;;;;;10.27;9.38;;;12.80;99.90;;;;;;4961971;28;20117;-74
2021/12/31 01:07:54;;;;;;;9.90;9.13;;;;;;;;;;4989238;28;20451;-73
2021/12/31 01:10:23;;;;;;;9.07;8.27;;;12.90;99.90;;;;;;4987903;28;20058;-74
2021/12/31 01:12:50;;;;;;;14.63;8.40;;;12.70;99.90;;;;;;4987626;28;20022;-73
2021/12/31 01:15:23;;;;;;;8.88;8.25;;;12.50;99.90;;;;;;4978292;28;20026;-74
2021/12/31 01:20:21;;;;;;;8.32;7.63;;;12.70;99.90;;;;;;4973338;28;20038;-73
2021/12/31 01:22:47;;;;;;;10.02;8.27;;;;;;;;;;4974133;28;20113;-75
2021/12/31 01:25:13;;;;;;;11.63;8.32;;;12.70;99.90;;;;;;4972521;28;20504;-76
2021/12/31 01:27:39;;;;;;;9.90;8.48;;;12.80;99.90;;;;;;4980520;28;20030;-75
2021/12/31 01:30:07;;;;;;;7.88;7.18;;;12.70;99.90;;;;;;4978397;28;20022;-74
2021/12/31 01:32:33;;;;;;;7.32;6.72;;;;;;;;;;4973996;28;20035;-76
2021/12/31 01:34:59;;;;;;;8.13;7.32;;;;;;;;;;4973851;28;20093;-73
2021/12/31 01:37:25;;;;;;;7.45;6.72;;;12.80;99.90;;;;;;4616369;28;10000231;-76
2021/12/31 01:39:51;;;;;;;7.55;6.95;;;12.90;99.90;;;;;;4968489;28;20077;-76
2021/12/31 01:42:21;;;;;;;8.10;7.50;;;12.90;99.90;;;;;;4970058;28;20035;-75
2021/12/31 01:44:56;;;;;;;7.57;6.95;;;12.90;99.90;;;;;;4970274;28;20129;-75
2021/12/31 01:47:33;;;;;;;6.10;5.22;;;;;;;;;;4967054;28;20490;-75
2021/12/31 01:50:01;;;;;;;5.55;5.05;;;;;;;;;;4975799;28;20047;-73
2021/12/31 01:52:27;;;;;;;8.60;6.20;;;13.40;99.90;;;;;;4970101;28;20025;-73
2021/12/31 01:54:53;;;;;;;5.20;4.70;;;;;;;;;;4970545;28;20030;-73
2021/12/31 01:57:20;;;;;;;5.65;5.15;;;13.00;99.90;;;;;;4969707;28;20030;-73
2021/12/31 01:59:46;;;;;;;5.38;4.60;;;13.00;99.90;;;;;;4968977;28;20037;-73
2021/12/31 02:02:12;;;;;;;7.25;5.18;;;12.90;99.90;;;;;;4969461;28;20015;-73
2021/12/31 02:04:40;;;;;;;8.18;4.25;;;13.00;99.90;;;;;;4970663;28;20482;-73
2021/12/31 02:07:06;;;;;;;4.88;4.47;;;12.90;99.90;;;;;;4975580;28;20490;-77
2021/12/31 02:09:37;;;;;;;5.25;4.85;;;12.80;99.90;;;;;;4983098;28;20089;-79
2021/12/31 02:12:04;;;;;;;5.55;4.60;;;12.80;99.90;;;;;;4984245;28;20023;-76
2021/12/31 02:14:31;;;;;;;5.55;5.15;;;12.70;99.90;;;;;;4982549;28;20030;-77
2021/12/31 02:16:57;;;;;;;9.32;5.68;;;12.60;99.90;;;;;;4981754;28;20023;-77
2021/12/31 02:19:29;;;;;;;4.50;4.18;;;12.90;99.90;;;;;;4983289;28;20087;-77
2021/12/31 02:21:55;;;;;;;5.35;4.72;;;12.70;99.90;;;;;;4983780;28;20095;-77
2021/12/31 02:24:22;;;;;;;5.50;5.00;;;;;;;;;;4984496;28;20023;-77
2021/12/31 02:26:49;;;;;;;5.55;5.15;;;12.70;99.90;;;;;;4983119;28;20095;-77
2021/12/31 02:29:14;;;;;;;6.63;5.30;;;12.90;99.90;;;;;;4978862;28;20034;-77
2021/12/31 02:31:40;;;;;;;6.15;5.55;;;12.70;99.90;;;;;;4977200;28;20424;-77
2021/12/31 02:34:06;;;;;;;6.03;5.53;;;12.70;99.90;;;;;;4976326;28;20038;-77
2021/12/31 02:36:31;;;;;;;6.90;6.25;;;12.80;99.90;;;;;;4974609;28;20081;-77
2021/12/31 02:38:57;;;;;;;6.63;6.13;;;12.90;99.90;;;;;;4977178;28;20046;-77
2021/12/31 02:41:23;;;;;;;6.10;5.13;;;12.80;99.90;;;;;;4976886;28;20031;-77
2021/12/31 02:43:48;;;;;;;6.43;5.90;;;12.70;99.90;;;;;;4991039;23;20046;-73
2021/12/31 02:46:14;;;;;;;7.57;7.00;;;12.80;99.90;;;;;;4974815;28;20026;-73
2021/12/31 02:48:40;;;;;;;9.68;7.00;;;12.80;99.90;;;;;;4975542;28;20026;-74
2021/12/31 02:51:06;;;;;;;7.57;7.05;;;12.80;99.90;;;;;;4975527;28;20023;-74
2021/12/31 02:53:37;;;;;;;6.95;6.43;;;12.90;99.90;;;;;;4975072;28;20495;-74
2021/12/31 02:56:09;;;;;;;8.68;6.53;;;14.10;99.90;;;;;;4975330;28;20023;-74
2021/12/31 02:58:35;;;;;;;7.88;7.22;;;12.90;99.90;;;;;;4975314;28;20027;-73
2021/12/31 03:01:02;;;;;;;7.65;7.15;;;12.90;99.90;;;;;;4975386;28;20049;-73
2021/12/31 03:03:29;;;;;;;7.88;7.18;;;12.90;99.90;;;;;;4975216;28;20469;-74
2021/12/31 03:05:55;;;;;;;7.25;6.38;;;12.80;99.90;;;;;;4975485;28;20042;-73
2021/12/31 03:08:23;;;;;;;8.07;7.30;;;12.90;99.90;;;;;;4974930;28;20031;-73
2021/12/31 03:10:49;;;;;;;10.82;7.70;;;12.90;99.90;;;;;;4974820;28;20114;-73
2021/12/31 03:13:16;;;;;;;8.55;7.75;;;12.90;99.90;;;;;;4974404;28;20469;-74
2021/12/31 03:15:42;;;;;;;7.95;7.25;;;12.90;99.90;;;;;;4973772;28;20473;-73
2021/12/31 03:18:10;;;;;;;8.77;7.68;;;12.90;99.90;;;;;;4974535;28;20034;-71
2021/12/31 03:20:37;;;;;;;10.02;7.65;;;12.90;99.90;;;;;;4974691;28;20157;-71
2021/12/31 03:23:04;;;;;;;9.93;7.65;;;12.90;99.90;;;;;;4975045;28;20034;-71
2021/12/31 03:25:30;;;;;;;11.52;7.53;;;13.00;99.90;;;;;;4973575;28;20031;-70
2021/12/31 03:27:56;;;;;;;9.63;8.63;;;12.90;99.90;;;;;;4974088;28;20446;-71
2021/12/31 03:30:22;;;;;;;8.38;7.75;;;12.90;99.90;;;;;;4974906;28;20019;-71
2021/12/31 03:32:47;;;;;;;8.30;7.72;;;;;;;;;;4974640;28;20423;-71
2021/12/31 03:35:13;;;;;;;9.77;8.65;;;12.80;99.90;;;;;;4973453;28;20023;-71
2021/12/31 03:37:39;;;;;;;10.80;8.90;;;;;;;;;;4974397;28;20456;-71
2021/12/31 03:40:06;;;;;;;9.85;9.05;;;12.90;99.90;;;;;;4974515;28;20442;-72
2021/12/31 03:42:32;;;;;;;7.97;7.22;;;12.90;99.90;;;;;;4973053;28;20115;-72
2021/12/31 03:44:58;;;;;;;8.18;7.35;;;12.90;99.90;;;;;;4974393;28;20417;-73
2021/12/31 03:47:23;;;;;;;8.40;7.70;;;12.90;99.90;;;;;;4974076;28;20035;-73
2021/12/31 03:49:49;;;;;;;12.68;7.82;;;12.90;99.90;;;;;;4975704;28;20029;-72
2021/12/31 03:52:14;;;;;;;8.82;8.07;;;12.90;99.90;;;;;;4976278;28;20027;-72
2021/12/31 03:54:40;;;;;;;9.48;6.88;;;13.00;99.90;;;;;;4978025;28;20034;-72
2021/12/31 03:57:06;;;;;;;10.88;8.00;;;;;;;;;;4974415;28;20027;-72
2021/12/31 03:59:32;;;;;;;8.60;7.88;;;13.00;99.90;;;;;;4974221;28;20015;-71
2021/12/31 04:01:57;;;;;;;9.13;8.20;;;13.00;99.90;;;;;;4972859;28;20030;-70
2021/12/31 04:04:23;;;;;;;8.18;7.53;;;13.00;99.90;;;;;;4974034;28;20038;-72
2021/12/31 04:06:48;;;;;;;10.73;8.68;;;13.00;99.90;;;;;;4973967;28;20034;-72
2021/12/31 04:09:14;;;;;;;12.57;7.20;;;13.00;99.90;;;;;;4973824;28;20033;-72
2021/12/31 04:11:39;;;;;;;8.63;7.93;;;12.90;99.90;;;;;;4974212;28;20033;-72
2021/12/31 04:14:05;;;;;;;8.02;7.28;;;12.90;99.90;;;;;;4976693;28;20026;-73
2021/12/31 04:16:30;;;;;;;8.48;7.80;;;12.90;99.90;;;;;;4975471;28;20061;-70
2021/12/31 04:18:57;;;;;;;11.63;7.45;;;12.90;99.90;;;;;;4974959;28;20034;-72
2021/12/31 04:21:24;;;;;;;9.13;8.35;;;13.60;99.90;;;;;;4975138;28;20027;-71
2021/12/31 04:23:53;;;;;;;11.57;6.60;;;12.90;99.90;;;;;;4975921;28;20036;-70
2021/12/31 04:26:19;;;;;;;7.82;7.22;;;12.80;99.90;;;;;;4973307;28;20022;-73
2021/12/31 04:28:45;;;;;;;8.02;7.32;;;12.90;99.90;;;;;;4973989;28;20078;-72
2021/12/31 04:31:11;;;;;;;7.93;7.22;;;12.90;99.90;;;;;;4972907;28;20496;-72
2021/12/31 04:33:37;;;;;;;7.63;7.03;;;12.90;99.90;;;;;;4973496;28;20050;-73
2021/12/31 04:36:04;;;;;;;6.65;6.15;;;12.90;99.90;;;;;;4973364;28;20113;-70
2021/12/31 04:38:30;;;;;;;5.97;5.47;;;12.90;99.90;;;;;;4973645;28;20071;-72
2021/12/31 04:40:56;;;;;;;7.38;6.78;;;;;;;;;;4973394;28;20117;-72
2021/12/31 04:43:22;;;;;;;6.93;6.38;;;12.90;99.90;;;;;;4973091;28;20035;-72
2021/12/31 04:45:47;;;;;;;7.43;5.90;;;12.90;99.90;;;;;;4974277;28;20027;-72
2021/12/31 04:48:13;;;;;;;8.25;5.75;;;12.90;99.90;;;;;;4975031;28;20023;-72
2021/12/31 04:50:38;;;;;;;6.05;5.45;;;12.90;99.90;;;;;;4975418;28;20090;-72
2021/12/31 04:53:04;;;;;;;6.45;4.38;;;12.80;99.90;;;;;;4974837;28;20031;-70
2021/12/31 04:55:31;;;;;;;5.97;4.03;;;12.80;99.90;;;;;;4973341;28;20023;-71
2021/12/31 04:57:57;;;;;;;4.25;3.42;;;12.80;99.90;;;;;;4973186;28;20033;-73
2021/12/31 05:00:22;;;;;;;3.90;3.60;;;12.90;99.90;;;;;;4972835;28;20027;-72
2021/12/31 05:02:48;;;;;;;3.80;2.90;;;12.90;99.90;;;;;;4973230;28;20424;-73
2021/12/31 05:05:13;;;;;;;2.90;2.60;;;12.90;99.90;;;;;;4973298;28;20047;-70
2021/12/31 05:07:39;;;;;;;3.25;2.78;;;12.90;99.90;;;;;;4972863;28;20023;-73
2021/12/31 05:10:06;;;;;;;3.25;2.90;;;12.90;99.90;;;;;;4973022;28;20034;-73
2021/12/31 05:12:34;;;;;;;6.97;3.30;;;12.90;99.90;;;;;;4973019;28;20461;-72
2021/12/31 05:15:01;;;;;;;2.85;2.58;;;12.90;99.90;;;;;;4973187;28;20417;-72
2021/12/31 05:17:27;;;;;;;4.90;2.80;;;12.90;99.90;;;;;;4972559;28;20085;-73
2021/12/31 05:19:52;;;;;;;4.43;2.47;;;12.90;99.90;;;;;;4973175;28;20443;-70
2021/12/31 05:22:18;;;;;;;3.63;2.75;;;13.00;99.90;;;;;;4972904;28;20061;-73
2021/12/31 05:24:44;;;;;;;2.47;2.22;;;13.00;99.90;;;;;;4972990;28;20098;-73
2021/12/31 05:27:09;;;;;;;3.15;2.30;;;13.00;99.90;;;;;;4972579;28;20058;-73
2021/12/31 05:29:35;;;;;;;2.00;1.83;;;13.00;99.90;;;;;;4973048;28;20058;-73
2021/12/31 05:32:01;;;;;;;4.10;1.92;;;13.10;99.90;;;;;;4972960;28;20031;-73
2021/12/31 05:34:27;;;;;;;3.28;2.00;;;13.00;99.90;;;;;;4971817;28;20022;-72
2021/12/31 05:36:53;;;;;;;2.47;2.20;;;13.00;99.90;;;;;;4974048;28;20027;-73
2021/12/31 05:39:18;;;;;;;4.40;2.15;;;13.00;99.90;;;;;;4973860;28;20058;-73
2021/12/31 05:41:44;;;;;;;3.35;1.95;;;13.00;99.90;;;;;;4974932;28;20035;-74
2021/12/31 05:44:10;;;;;;;2.63;2.40;;;13.10;99.90;;;;;;4986671;28;20019;-72
2021/12/31 05:46:36;;;;;;;3.78;1.90;;;13.10;99.90;;;;;;5000689;28;20050;-72
2021/12/31 05:49:03;;;;;;;2.22;1.90;;;13.00;99.90;;;;;;5000695;28;20034;-74
2021/12/31 05:51:30;;;;;;;5.20;2.10;;;13.00;99.90;;;;;;5001141;28;20015;-75
2021/12/31 05:53:55;;;;;;;2.78;1.75;;;13.10;99.90;;;;;;5000217;28;20011;-75
2021/12/31 05:56:21;;;;;;;3.85;2.20;;;14.70;99.90;;;;;;5000304;28;20046;-74
2021/12/31 05:58:46;;;;;;;2.97;2.28;;;13.00;99.90;;;;;;5000463;28;20034;-73
2021/12/31 06:01:12;;;;;;;2.53;2.20;;;13.00;99.90;;;;;;5000356;28;20057;-72
2021/12/31 06:03:37;;;;;;;2.40;2.15;;;13.00;99.90;;;;;;4991381;28;20035;-73
2021/12/31 06:06:04;;;;;;;3.58;2.13;;;13.00;99.90;;;;;;4978182;28;20022;-70
2021/12/31 06:08:30;;;;;;;2.40;2.20;;;13.00;99.90;;;;;;4977621;28;20035;-73
2021/12/31 06:10:56;;;;;;;2.33;2.13;;;13.00;99.90;;;;;;4977232;28;20477;-73
2021/12/31 06:13:22;;;;;;;2.50;1.80;;;14.10;99.90;;;;;;4977132;28;20026;-72
2021/12/31 06:15:54;;;;;;;4.85;2.22;;;13.00;99.90;;;;;;4977006;28;20520;-73
2021/12/31 06:18:20;;;;;;;3.03;2.22;;;13.00;99.90;;;;;;4976432;28;20106;-73
2021/12/31 06:20:45;;;;;;;2.67;2.00;;;13.00;99.90;;;;;;4976426;28;20466;-73
2021/12/31 06:23:11;;;;;;;6.30;2.05;;;13.00;99.90;;;;;;4975996;28;20031;-72
2021/12/31 06:25:36;;;;;;;4.15;2.28;;;13.00;99.90;;;;;;4975502;28;20023;-73
2021/12/31 06:28:02;;;;;;;4.57;2.65;;;13.00;99.90;;;;;;4975776;28;20026;-70
2021/12/31 06:30:28;;;;;;;2.88;2.67;;;13.00;99.90;;;;;;4976097;28;20401;-73
2021/12/31 06:32:54;;;;;;;2.53;2.33;;;13.00;99.90;;;;;;4975755;28;20034;-72
2021/12/31 06:35:19;;;;;;;3.35;3.05;;;13.00;99.90;;;;;;4975914;28;20493;-72
2021/12/31 06:37:48;;;;;;;4.75;2.22;;;13.00;99.90;;;;;;4975557;28;20054;-73
2021/12/31 06:40:14;;;;;;;2.38;2.17;;;13.00;99.90;;;;;;4975861;28;20531;-73
2021/12/31 06:42:40;;;;;;;3.15;2.85;;;13.00;99.90;;;;;;4973895;28;20374;-73
2021/12/31 06:45:06;;;;;;;4.32;2.55;;;13.00;99.90;;;;;;4974463;28;20034;-71
2021/12/31 06:47:32;;;;;;;4.18;2.60;;;13.00;99.90;;;;;;4975309;28;20026;-71
2021/12/31 06:49:57;;;;;;;4.43;2.88;;;13.00;99.90;;;;;;4976802;28;20062;-73
2021/12/31 06:52:23;;;;;;;3.03;2.72;;;13.00;99.90;;;;;;4975399;28;20019;-73
2021/12/31 06:54:48;;;;;;;3.53;2.42;;;13.00;99.90;;;;;;4974452;28;20027;-73
2021/12/31 06:57:14;;;;;;;2.92;2.65;;;13.00;99.90;;;;;;4973907;28;20019;-72
2021/12/31 06:59:39;;;;;;;3.35;2.63;;;13.00;99.90;;;;;;4973489;28;20035;-73
2021/12/31 07:02:05;;;;;;;3.42;2.55;;;13.00;99.90;;;;;;4975278;28;20031;-73
2021/12/31 07:04:30;;;;;;;2.92;2.00;;;13.00;99.90;;;;;;4975318;28;20061;-72
2021/12/31 07:06:56;;;;;;;2.58;2.38;;;13.00;99.90;;;;;;4975202;28;20105;-73
2021/12/31 07:09:22;;;;;;;2.42;2.22;;;13.80;99.90;;;;;;4975250;28;20039;-73
2021/12/31 07:11:47;;;;;;;2.78;2.58;;;13.00;99.90;;;;;;4975301;28;20034;-73
2021/12/31 07:14:13;;;;;;;2.95;2.58;;;13.00;99.90;;;;;;4974671;28;20031;-72
2021/12/31 07:16:38;;;;;;;2.17;2.03;;;13.00;99.90;;;;;;4974873;28;20023;-73
2021/12/31 07:19:04;;;;;;;2.88;2.58;;;13.00;99.90;;;;;;4974989;28;20034;-73
2021/12/31 07:21:29;;;;;;;3.35;2.20;;;13.00;99.90;;;;;;4975058;28;20046;-72
2021/12/31 07:23:55;;;;;;;4.03;2.20;;;13.00;99.90;;;;;;4974817;28;20034;-72
2021/12/31 07:26:20;;;;;;;3.95;2.20;;;13.00;99.90;;;;;;4974524;28;20039;-72
2021/12/31 07:28:46;;;;;;;2.83;1.75;;;13.00;99.90;;;;;;4974870;28;20037;-72
2021/12/31 07:31:14;;;;;;;2.72;2.47;;;13.00;99.90;;;;;;4974628;28;20023;-72
2021/12/31 07:33:41;;;;;;;3.55;2.00;;;13.00;99.90;;;;;;4974790;28;20033;-72
2021/12/31 07:36:07;;;;;;;2.65;1.85;;;13.10;99.90;;;;;;4974643;28;20019;-72
2021/12/31 07:38:36;;;;;;;2.75;2.00;;;13.00;99.90;;;;;;4974737;28;20473;-72
2021/12/31 07:41:03;;;;;;;5.00;2.10;;;13.00;99.90;;;;;;4974924;28;20090;-71
2021/12/31 07:43:29;;;;;;;6.53;1.98;;;13.10;99.90;;;;;;4974704;28;20417;-72
2021/12/31 07:45:54;;;;;;;2.58;1.80;;;13.10;99.90;;;;;;4973571;28;20476;-72
2021/12/31 07:48:21;;;;;;;4.03;2.05;;;13.20;99.90;;;;;;4972955;28;20030;-72
2021/12/31 07:50:47;;;;;;;4.15;2.10;;;13.20;99.90;;;;;;4973888;28;20034;-72
2021/12/31 07:53:13;;;;;;;2.38;1.75;;;13.20;99.90;;;;;;4973500;28;20101;-72
2021/12/31 07:55:39;;;;;;;5.40;2.58;;;13.20;99.90;;;;;;4973831;28;20386;-72
2021/12/31 07:58:07;;;;;;;3.80;1.92;;;13.30;99.90;;;;;;4973461;28;20034;-72
2021/12/31 08:00:35;;;;;;;3.83;1.75;;;13.30;99.90;;;;;;4973575;28;20095;-73
2021/12/31 08:03:01;;;;;;;4.32;1.92;;;13.30;99.90;;;;;;4973973;28;20027;-73
2021/12/31 08:05:28;;;;;;;2.95;1.40;;;13.30;99.90;;;;;;4972468;28;20066;-73
2021/12/31 08:07:54;;;;;;;1.73;1.60;;;13.30;99.90;;;;;;4972263;28;20077;-72
2021/12/31 08:10:21;;;;;;;1.70;1.60;;;14.60;99.90;;;;;;4973984;28;20049;-73
2021/12/31 08:12:47;;;;;;;4.20;1.55;;;13.30;99.90;;;;;;4974063;28;20054;-72
2021/12/31 08:15:13;;;;;;;1.40;1.27;;;13.30;99.90;;;;;;4974327;28;20026;-72
2021/12/31 08:17:39;;;;;;;1.60;1.50;;;13.30;99.90;;;;;;4972936;28;20035;-73
2021/12/31 08:20:05;;;;;;;3.47;1.85;;;13.30;99.90;;;;;;4285695;28;10000633;-71
2021/12/31 08:22:32;;;;;;;3.22;1.75;;;13.40;99.90;;;;;;4972101;28;20043;-73
2021/12/31 08:24:57;;;;;;;2.40;1.25;;;13.40;99.90;;;;;;4972930;28;20055;-73
2021/12/31 08:27:23;;;;;;;2.22;1.40;;;13.40;99.90;;;;;;4972112;28;20026;-72
2021/12/31 08:29:48;;;;;;;2.20;1.10;;;13.40;99.90;;;;;;4969863;28;20027;-73
2021/12/31 08:32:14;;;;;;;2.42;1.40;;;13.40;99.90;;;;;;4970606;28;20470;-72
2021/12/31 08:34:40;;;;;;;2.08;1.13;;;13.50;99.90;;;;;;4970485;28;20477;-72
2021/12/31 08:37:06;;;;;;;3.25;1.20;;;13.50;99.90;;;;;;4967469;28;20089;-71
2021/12/31 08:39:31;;;;;;;5.80;1.70;;;13.50;99.90;;;;;;4968477;28;20121;-72
2021/12/31 08:41:59;;;;;;;5.18;1.38;;;13.50;99.90;;;;;;4970082;28;20035;-74
2021/12/31 08:44:24;;;;;;;3.25;1.38;;;13.50;99.90;;;;;;5011535;23;20050;-75
2021/12/31 08:46:50;;;;;;;2.60;1.10;;;13.40;99.90;;;;;;5000657;28;20037;-77
2021/12/31 08:49:15;;;;;;;2.20;1.20;;;13.50;99.90;;;;;;5007798;28;20124;-78
2021/12/31 08:51:41;;;;;;;3.47;1.00;;;13.50;99.90;;;;;;5007592;28;20033;-78
2021/12/31 08:54:07;;;;;;;1.80;1.02;;;13.50;99.90;;;;;;5002970;28;20464;-78
2021/12/31 08:56:32;;;;;;;1.85;0.93;;;13.60;99.90;;;;;;4990256;28;20030;-77
2021/12/31 08:58:58;;;;;;;5.15;1.05;;;15.50;99.90;;;;;;4989927;28;20034;-78
2021/12/31 09:01:24;;;;;;;2.15;1.00;;;13.60;99.90;;;;;;4989713;28;20057;-77
2021/12/31 09:03:49;;;;;;;2.17;0.90;;;13.60;99.90;;;;;;4990034;28;20080;-77
2021/12/31 09:06:19;;;;;;;1.25;0.80;;;13.60;99.90;;;;;;4989152;28;20413;-76
2021/12/31 09:08:48;;;;;;;3.28;0.90;;;13.60;99.90;;;;;;4989275;28;20057;-77
2021/12/31 09:11:14;;;;;;;3.45;0.80;;;13.60;99.90;;;;;;4989371;28;20511;-76
2021/12/31 09:13:42;;;;;;;2.17;1.10;;;13.60;99.90;;;;;;4990106;28;20039;-76
2021/12/31 09:16:09;;;;;;;2.40;1.00;;;13.60;99.90;;;;;;4989121;28;20030;-78
2021/12/31 09:18:35;;;;;;;1.10;0.90;;;13.60;99.90;;;;;;4990245;28;20084;-77
2021/12/31 09:21:00;;;;;;;2.25;0.80;;;13.80;99.90;;;;;;4990308;28;20031;-76
2021/12/31 09:23:26;;;;;;;2.05;1.10;;;13.60;99.90;;;;;;4989327;28;20096;-76
2021/12/31 09:25:51;;;;;;;10.15;1.10;;;14.30;99.90;;;;;;4989210;28;20090;-76
2021/12/31 09:28:17;;;;;;;2.75;0.90;;;13.50;99.90;;;;;;4988800;28;20076;-75
2021/12/31 09:30:43;;;;;;;2.40;0.80;;;13.50;99.90;;;;;;4989430;28;20113;-76
2021/12/31 09:33:09;;;;;;;3.05;0.95;;;13.50;99.90;;;;;;4989111;28;20037;-76
2021/12/31 09:35:36;;;;;;;1.52;0.90;;;13.60;99.90;;;;;;4989713;28;20034;-76
2021/12/31 09:38:07;;;;;;;2.13;0.80;;;13.70;99.90;;;;;;4991101;28;20097;-79
2021/12/31 09:40:33;;;;;;;5.72;0.70;;;13.70;99.90;;;;;;4993642;28;20042;-74
2021/12/31 09:43:09;;;;;;;2.03;1.02;;;13.70;99.90;;;;;;4993535;28;20026;-75
2021/12/31 09:45:36;;;;;;;4.18;1.00;;;13.90;99.90;;;;;;4994528;28;20042;-70
2021/12/31 09:48:05;;;;;;;2.67;0.80;;;13.80;99.90;;;;;;4989134;28;20026;-69
2021/12/31 09:50:31;;;;;;;4.10;0.80;;;13.90;99.90;;;;;;4995142;28;20033;-69
2021/12/31 09:52:57;;;;;;;4.47;0.77;;;13.90;99.90;;;;;;5004734;28;20463;-69
2021/12/31 09:55:40;;;;;;;2.25;0.90;;;13.80;99.90;;;;;;4992550;28;20027;-68
2021/12/31 09:58:07;;;;;;;1.80;0.70;;;13.80;99.90;;;;;;4989281;28;20030;-73
2021/12/31 10:00:33;;;;;;;5.18;0.90;;;13.80;99.90;;;;;;4988972;28;20033;-69
2021/12/31 10:03:29;;;;;;;3.88;0.93;;;13.90;99.90;;;;;;4987322;28;20026;-71
2021/12/31 10:06:00;;;;;;;1.73;0.65;;;13.90;99.90;;;;;;4984588;28;20038;-69
2021/12/31 10:08:47;;;;;;;1.48;0.80;;;13.80;99.90;;;;;;5008021;28;20138;-70
2021/12/31 10:11:16;;;;;;;1.95;0.82;;;13.80;99.90;;;;;;4987511;28;20026;-71
2021/12/31 10:14:05;;;;;;;11.77;1.17;;;13.70;99.90;;;;;;5008289;28;20036;-69
2021/12/31 10:16:39;;;;;;;3.33;1.42;;;13.80;99.90;;;;;;4995330;28;20031;-70
2021/12/31 10:19:18;;;;;;;3.08;0.90;;;13.80;99.90;;;;;;4988135;28;20030;-70
2021/12/31 10:21:54;;;;;;;2.55;0.75;;;13.80;99.90;;;;;;4988387;28;20084;-69
2021/12/31 10:24:19;;;;;;;2.13;0.90;;;13.70;99.90;;;;;;4988780;28;20492;-69
2021/12/31 10:26:45;;;;;;;1.83;0.63;;;13.70;99.90;;;;;;4996408;28;20069;-70
2021/12/31 10:29:11;;;;;;;2.75;1.15;;;13.60;99.90;;;;;;5004553;28;20026;-70
2021/12/31 10:31:51;;;;;;;11.05;1.10;;;13.60;99.90;;;;;;4995691;28;20038;-70
2021/12/31 10:34:25;;;;;;;4.15;0.90;;;13.60;99.90;;;;;;4999678;28;20030;-70
2021/12/31 10:36:51;;;;;;;4.55;1.00;;;13.60;99.90;;;;;;4991694;28;20030;-70
2021/12/31 10:39:20;;;;;;;1.60;0.77;;;13.60;99.90;;;;;;4991617;28;20512;-67
2021/12/31 10:42:01;;;;;;;3.05;0.93;;;13.50;99.90;;;;;;5001213;28;20044;-70
2021/12/31 10:45:01;;;;;;;5.93;0.80;;;13.50;99.90;;;;;;5011437;28;20034;-75
2021/12/31 10:47:35;;;;;;;3.90;0.77;;;13.50;99.90;;;;;;4970411;28;20555;-74
2021/12/31 10:50:00;;;;;;;0.90;0.70;;;13.50;99.90;;;;;;4991028;28;20031;-73
2021/12/31 10:52:37;;;;;;;1.83;0.75;;;14.10;99.90;;;;;;4992474;28;20034;-75
2021/12/31 10:55:22;;;;;;;3.75;0.98;;;13.50;99.90;;;;;;4999185;28;20042;-74
2021/12/31 10:57:53;;;;;;;1.20;0.80;;;13.50;99.90;;;;;;4991817;28;20077;-72
2021/12/31 11:00:21;;;;;;;2.13;0.88;;;13.40;99.90;;;;;;4991534;28;20053;-76
2021/12/31 11:02:47;;;;;;;3.65;1.10;;;13.40;99.90;;;;;;4998601;28;20105;-74
2021/12/31 11:05:17;;;;;;;3.72;1.05;;;13.30;99.90;;;;;;4993826;28;20561;-72
2021/12/31 11:07:43;;;;;;;1.88;0.80;;;13.30;99.90;;;;;;4997482;28;20046;-75
2021/12/31 11:10:10;;;;;;;3.10;0.80;;;13.30;99.90;;;;;;4991593;28;20026;-75
2021/12/31 11:12:36;;;;;;;4.68;0.90;;;13.50;99.90;;;;;;4992382;28;20453;-76
2021/12/31 11:15:05;;;;;;;2.10;0.90;;;13.40;99.90;;;;;;4992934;28;20042;-75
2021/12/31 11:17:32;;;;;;;4.88;1.27;;;13.50;99.90;;;;;;4993667;28;20031;-75
2021/12/31 11:19:58;;;;;;;1.88;0.77;;;13.50;99.90;;;;;;4993900;28;20504;-75
2021/12/31 11:22:26;;;;;;;1.25;0.77;;;13.60;99.90;;;;;;4994305;28;20396;-76
2021/12/31 11:24:52;;;;;;;3.80;1.00;;;14.80;99.90;;;;;;4992860;28;20401;-76
2021/12/31 11:27:44;;;;;;;1.27;0.70;;;13.50;99.90;;;;;;4993111;28;20026;-75
2021/12/31 11:30:24;;;;;;;5.50;1.42;;;13.60;99.90;;;;;;4994519;28;20018;-75
2021/12/31 11:33:06;;;;;;;1.40;0.90;;;14.80;99.90;;;;;;4994027;28;20073;-76
2021/12/31 11:35:57;;;;;;;4.82;0.90;;;13.60;99.90;;;;;;4994095;28;20026;-76
2021/12/31 11:38:23;;;;;;;6.60;1.05;;;13.70;99.90;;;;;;4992573;28;20082;-75
2021/12/31 11:41:13;;;;;;;5.90;1.40;;;13.60;99.90;;;;;;4993518;28;20558;-75
2021/12/31 11:43:43;;;;;;;1.17;0.75;;;13.70;99.90;;;;;;4993558;28;20038;-74
2021/12/31 11:46:09;;;;;;;5.10;1.83;;;13.60;99.90;;;;;;4993534;28;20030;-76
2021/12/31 11:48:44;;;;;;;4.07;0.80;;;16.00;99.90;;;;;;4993673;28;20033;-75
2021/12/31 11:51:28;;;;;;;5.15;1.02;;;13.60;99.90;;;;;;4994648;28;20026;-72
2021/12/31 11:53:59;;;;;;;3.83;1.30;;;13.50;99.90;;;;;;4991788;28;20026;-75
2021/12/31 11:56:37;;;;;;;3.20;0.69;;;13.00;99.90;;;;;;4652603;28;10000418;-75
2021/12/31 11:59:08;;;;;;;1.35;0.63;;;13.40;99.90;;;;;;4990857;28;20072;-76
2021/12/31 12:01:37;;;;;;;1.83;0.75;;;13.60;99.90;;;;;;4997674;28;20030;-75
2021/12/31 12:04:29;;;;;;;3.17;0.70;;;13.60;99.90;;;;;;5001679;28;20022;-76
2021/12/31 12:07:06;;;;;;;1.25;0.77;;;13.60;99.90;;;;;;5011048;28;20041;-76
2021/12/31 12:09:37;;;;;;;1.67;0.60;;;13.70;99.90;;;;;;4995317;28;20026;-76
2021/12/31 12:12:16;;;;;;;2.80;0.80;;;13.70;99.90;;;;;;4990713;28;20034;-78
2021/12/31 12:14:49;;;;;;;4.43;0.88;;;13.70;99.90;;;;;;4988465;28;20018;-77
2021/12/31 12:17:36;;;;;;;3.42;0.65;;;13.70;99.90;;;;;;4991755;28;20035;-76
2021/12/31 12:20:02;;;;;;;1.33;1.13;;;13.80;99.90;;;;;;4989671;28;20046;-77
2021/12/31 12:22:28;;;;;;;0.77;0.70;;;13.80;99.90;;;;;;4989846;28;20608;-74
2021/12/31 12:24:56;;;;;;;2.58;0.90;;;13.80;99.90;;;;;;4990268;28;20054;-76
2021/12/31 12:27:23;;;;;;;1.63;0.80;;;13.80;99.90;;;;;;4993341;28;20531;-76
2021/12/31 12:29:49;;;;;;;1.80;0.70;;;13.80;99.90;;;;;;4987866;28;20057;-75
2021/12/31 12:32:17;;;;;;;1.58;0.60;;;13.80;99.90;;;;;;4988245;28;20030;-76
2021/12/31 12:34:43;;;;;;;2.17;0.80;;;13.80;99.90;;;;;;4986238;28;20034;-75
2021/12/31 12:37:09;;;;;;;1.65;0.70;;;13.80;99.90;;;;;;4985453;28;20022;-76
2021/12/31 12:39:35;;;;;;;1.77;0.70;;;13.80;99.90;;;;;;4992641;28;20061;-77
2021/12/31 12:42:00;;;;;;;1.40;0.93;;;13.80;99.90;;;;;;4987686;28;20084;-75
2021/12/31 12:44:26;;;;;;;1.23;0.80;;;13.90;99.90;;;;;;4990747;28;20057;-77
2021/12/31 12:46:54;;;;;;;3.03;0.77;;;13.90;99.90;;;;;;4986582;28;20069;-78
2021/12/31 12:49:21;;;;;;;2.75;0.60;;;11.60;99.90;;;;;;4994643;28;20065;-78
2021/12/31 12:51:48;;;;;;;8.98;0.73;;;14.00;99.90;;;;;;4990839;28;20113;-77
2021/12/31 12:54:22;;;;;;;1.67;0.73;;;14.50;99.90;;;;;;4986756;28;20370;-77
2021/12/31 12:56:51;;;;;;;2.20;0.85;;;14.10;99.90;;;;;;4992809;28;20163;-77
2021/12/31 12:59:23;;;;;;;2.30;0.80;;;14.10;99.90;;;;;;4990013;28;20069;-75